Time;durP1;ratioP1;P1;durP2;ratioP2;P2;SDS_P1;SDS_P2;PMS_P1;PMS_P2;Temp;Humidity;BMP_temperature;BMP_pressure;BME280_temperature;BME280_humidity;BME280_pressure;Samples;Min_cycle;Max_cycle;Signal;HPM_P1;HPM_P2
2022/01/02 00:01:04;;;;;;;5.60;4.60;;;;;;;-143.35;91.98;77544.97;5033274;28;20536;-75
2022/01/02 00:03:53;;;;;;;6.50;5.40;;;;;;;-143.35;92.16;77546.94;5033378;28;20438;-76
2022/01/02 00:06:47;;;;;;;5.50;5.00;;;;;;;-143.35;91.90;77529.13;5033057;28;20877;-76
2022/01/02 00:09:37;;;;;;;6.20;4.60;;;;;;;-143.35;91.46;77509.34;5032710;28;20473;-76
2022/01/02 00:12:28;;;;;;;6.73;5.47;;;;;;;-143.35;90.74;77507.34;5032692;28;20528;-76
2022/01/02 00:15:19;;;;;;;5.60;4.83;;;;;;;-143.35;90.34;77487.56;5034584;28;20445;-75
2022/01/02 00:18:11;;;;;;;5.27;4.77;;;;;;;-143.35;89.89;77483.63;5032640;28;20445;-76
2022/01/02 00:21:00;;;;;;;6.60;5.60;;;;;;;-143.35;89.85;77467.78;5031753;28;20441;-75
2022/01/02 00:23:59;;;;;;;6.10;4.90;;;;;;;-143.35;89.98;77469.75;5021138;28;20493;-76
2022/01/02 00:26:49;;;;;;;7.10;5.10;;;;;;;-143.35;89.65;77481.63;5031468;28;20556;-76
2022/01/02 00:29:38;;;;;;;5.90;4.70;;;;;;;-143.35;89.81;77489.56;5030754;28;20531;-76
2022/01/02 00:32:27;;;;;;;4.53;4.20;;;;;;;-143.35;89.96;77473.72;5030438;28;20551;-76
2022/01/02 00:35:15;;;;;;;6.93;5.00;;;;;;;-143.35;89.71;77477.69;5012849;28;20446;-76
2022/01/02 00:38:02;;;;;;;6.00;5.40;;;;;;;-143.35;89.71;77489.56;5013611;28;20438;-76
2022/01/02 00:40:55;;;;;;;4.97;4.50;;;;;;;-143.35;89.45;77491.53;5012637;28;20467;-76
2022/01/02 00:43:49;;;;;;;5.87;5.07;;;;;;;-143.35;89.37;77507.34;5026696;28;20790;-76
2022/01/02 00:46:48;;;;;;;4.73;4.33;;;;;;;-143.35;89.42;77515.28;5033000;28;20445;-75
2022/01/02 00:49:40;;;;;;;5.13;4.57;;;;;;;-143.35;89.61;77523.19;5033180;28;20488;-76
2022/01/02 00:52:29;;;;;;;5.70;4.40;;;;;;;-143.35;89.86;77527.16;5032177;28;20434;-76
2022/01/02 00:55:21;;;;;;;5.43;4.93;;;;;;;-143.35;89.99;77523.19;5032046;28;20472;-76
2022/01/02 00:58:14;;;;;;;5.73;4.33;;;;;;;-143.35;89.79;77517.25;5031829;28;20522;-76
2022/01/02 01:01:06;;;;;;;4.47;4.17;;;;;;;-143.35;89.87;77519.22;5030897;28;20457;-76
2022/01/02 01:03:55;;;;;;;5.17;4.63;;;;;;;-143.35;89.66;77525.16;5032172;28;20445;-76
2022/01/02 01:06:50;;;;;;;5.27;4.33;;;;;;;-143.35;89.38;77517.25;5031257;28;20877;-74
2022/01/02 01:09:39;;;;;;;7.60;4.50;;;;;;;-143.35;89.31;77509.34;5030822;28;20508;-76
2022/01/02 01:12:27;;;;;;;5.00;4.37;;;;;;;-143.35;89.39;77519.22;5031726;28;20988;-76
2022/01/02 01:15:20;;;;;;;5.13;4.63;;;;;;;-143.35;89.18;77511.31;5032004;28;20445;-75
2022/01/02 01:18:07;;;;;;;6.03;4.50;;;;;;;-143.35;88.86;77513.28;5031860;28;20445;-76
2022/01/02 01:20:55;;;;;;;5.50;4.37;;;;;;;-143.35;88.92;77513.28;5032630;28;20845;-76
2022/01/02 01:23:43;;;;;;;5.23;4.37;;;;;;;-143.35;88.74;77505.38;5032550;28;20447;-75
2022/01/02 01:26:30;;;;;;;5.77;4.77;;;;;;;-143.35;88.50;77505.38;5030768;28;20536;-76
2022/01/02 01:29:18;;;;;;;4.43;4.00;;;;;;;-143.35;88.52;77511.31;5031353;28;20468;-76
2022/01/02 01:32:09;;;;;;;5.00;4.50;;;;;;;-143.35;88.71;77513.28;5031522;28;20804;-76
2022/01/02 01:34:57;;;;;;;4.70;4.30;;;;;;;-143.35;88.77;77509.34;5030459;28;20457;-75
2022/01/02 01:37:45;;;;;;;4.80;4.40;;;;;;;-143.35;88.65;77507.34;5029615;28;20524;-75
2022/01/02 01:40:41;;;;;;;5.83;4.30;;;;;;;-143.35;88.30;77515.28;5028600;28;20515;-76
2022/01/02 01:43:37;;;;;;;5.70;4.87;;;;;;;-143.35;88.56;77511.31;5031054;28;20595;-76
2022/01/02 01:46:25;;;;;;;4.73;4.30;;;;;;;-143.35;88.68;77495.47;5031915;28;20451;-76
2022/01/02 01:49:19;;;;;;;5.37;4.47;;;;;;;-143.35;88.56;77495.47;5030560;28;20833;-75
2022/01/02 01:52:07;;;;;;;4.40;4.00;;;;;;;-143.35;88.45;77499.44;5030252;28;20433;-75
2022/01/02 01:54:54;;;;;;;6.37;4.90;;;;;;;-143.35;88.56;77507.34;5031807;28;20949;-76
2022/01/02 01:57:42;;;;;;;5.90;5.07;;;;;;;-143.35;88.18;77491.53;5030768;28;20906;-75
2022/01/02 02:00:33;;;;;;;5.50;5.00;;;;;;;-143.35;88.06;77491.53;5029712;28;20473;-76
2022/01/02 02:03:24;;;;;;;7.27;4.90;;;;;;;-143.35;88.14;77483.63;5029315;28;20449;-74
2022/01/02 02:06:13;;;;;;;4.40;4.00;;;;;;;-143.35;88.32;77479.66;5031026;28;20445;-76
2022/01/02 02:09:02;;;;;;;5.07;4.57;;;;;;;-143.35;88.45;77479.66;5029230;28;20465;-75
2022/01/02 02:11:50;;;;;;;5.07;4.63;;;;;;;-143.35;87.97;77479.66;5032031;28;20441;-76
2022/01/02 02:14:39;;;;;;;5.17;4.70;;;;;;;-143.35;87.69;77491.53;5031218;28;21207;-76
2022/01/02 02:17:28;;;;;;;4.87;4.47;;;;;;;-143.35;87.56;77479.66;5031492;28;20441;-76
2022/01/02 02:20:18;;;;;;;4.63;4.20;;;;;;;-143.35;87.69;77483.63;5031700;28;20473;-74
2022/01/02 02:23:07;;;;;;;4.90;4.10;;;;;;;-143.35;87.51;77477.69;5031449;28;20442;-76
2022/01/02 02:25:54;;;;;;;8.47;4.73;;;;;;;-143.35;87.64;77485.59;5029199;28;20445;-76
2022/01/02 02:28:43;;;;;;;4.43;3.80;;;;;;;-143.35;88.17;77485.59;5029438;28;20836;-76
2022/01/02 02:31:31;;;;;;;5.30;4.80;;;;;;;-143.35;88.09;77479.66;5030888;28;20456;-76
2022/01/02 02:34:19;;;;;;;6.70;4.50;;;;;;;-143.35;88.11;77479.66;5030326;28;20445;-76
2022/01/02 02:37:08;;;;;;;4.77;4.37;;;;;;;-143.35;87.91;77473.72;5029484;28;20449;-76
2022/01/02 02:39:55;;;;;;;6.20;4.20;;;;;;;-143.35;87.81;77471.75;5010007;28;20462;-76
2022/01/02 02:42:51;;;;;;;4.63;4.23;;;;;;;-143.35;87.79;77463.81;5011481;28;20510;-76
2022/01/02 02:49:02;;;;;;;4.87;4.37;;;;;;;-143.35;87.56;77457.88;5010204;28;20891;-76
2022/01/02 02:51:55;;;;;;;4.67;4.27;;;;;;;-143.35;87.41;77444.03;5011170;28;20454;-76
2022/01/02 02:54:51;;;;;;;5.70;4.17;;;;;;;-143.35;87.63;77436.13;5013081;28;20498;-76
2022/01/02 02:57:40;;;;;;;6.87;4.40;;;;;;;-143.35;87.74;77438.09;5028298;28;20532;-76
2022/01/02 03:00:28;;;;;;;4.73;3.93;;;;;;;-143.35;87.92;77438.09;5055824;22;20492;-80
2022/01/02 03:03:16;;;;;;;5.27;4.77;;;;;;;-143.35;87.81;77436.13;5049785;28;20448;-80
2022/01/02 03:06:04;;;;;;;6.07;5.50;;;;;;;-143.35;87.83;77430.19;5046999;28;20461;-81
2022/01/02 03:08:53;;;;;;;6.33;4.63;;;;;;;-143.35;87.69;77428.22;5031150;28;20480;-80
2022/01/02 03:11:43;;;;;;;5.90;5.30;;;;;;;-143.35;87.59;77436.13;5011732;28;20446;-80
2022/01/02 03:14:32;;;;;;;5.03;3.70;;;;;;;-143.35;87.67;77436.13;5010473;28;20454;-79
2022/01/02 03:17:20;;;;;;;5.50;4.87;;;;;;;-143.35;87.68;77444.03;5012907;28;20482;-79
2022/01/02 03:20:08;;;;;;;5.40;4.90;;;;;;;-143.35;87.64;77446.00;5015174;28;21061;-79
2022/01/02 03:22:56;;;;;;;4.13;3.83;;;;;;;-143.35;87.53;77440.06;5034692;28;20456;-79
2022/01/02 03:25:44;;;;;;;5.00;4.50;;;;;;;-143.35;87.13;77424.25;5033834;28;20455;-79
2022/01/02 03:28:34;;;;;;;4.80;4.30;;;;;;;-143.35;86.88;77422.28;5031624;28;20469;-79
2022/01/02 03:31:40;;;;;;;4.67;4.30;;;;;;;-143.35;86.53;77416.34;5015570;28;20477;-80
2022/01/02 03:34:27;;;;;;;6.20;4.93;;;;;;;-143.35;86.53;77410.41;5017327;28;20487;-80
2022/01/02 03:37:15;;;;;;;5.47;4.97;;;;;;;-143.35;86.75;77418.31;5016791;28;20520;-79
2022/01/02 03:40:05;;;;;;;5.80;4.20;;;;;;;-143.35;86.67;77408.41;5016007;28;20474;-80
2022/01/02 03:42:53;;;;;;;5.50;4.47;;;;;;;-143.35;86.57;77414.34;5017162;28;20448;-80
2022/01/02 03:45:42;;;;;;;5.33;4.67;;;;;;;-143.35;86.76;77416.34;5017415;28;20446;-80
2022/01/02 03:48:31;;;;;;;4.90;4.50;;;;;;;-143.35;87.00;77416.34;5030276;28;21021;-78
2022/01/02 03:51:19;;;;;;;5.10;4.60;;;;;;;-143.35;87.13;77414.34;5037576;28;20469;-78
2022/01/02 03:54:07;;;;;;;5.80;4.57;;;;;;;-143.35;87.16;77400.50;5036903;28;20445;-80
2022/01/02 03:56:56;;;;;;;6.63;4.83;;;;;;;-143.35;87.12;77394.56;5037199;28;20449;-78
2022/01/02 03:59:44;;;;;;;5.70;4.60;;;;;;;-143.35;87.03;77372.81;5024198;28;20484;-79
2022/01/02 04:02:34;;;;;;;5.10;4.60;;;;;;;-143.35;86.79;77372.81;5019404;28;20946;-78
2022/01/02 04:05:22;;;;;;;7.33;5.00;;;;;;;-143.35;86.70;77356.97;5018640;28;20517;-78
2022/01/02 04:08:11;;;;;;;5.13;4.30;;;;;;;-143.35;86.73;77356.97;5016410;28;20887;-78
2022/01/02 04:10:59;;;;;;;5.67;4.57;;;;;;;-143.35;86.89;77355.00;5017742;28;20470;-80
2022/01/02 04:13:47;;;;;;;5.57;4.47;;;;;;;-143.35;87.12;77362.91;5017499;28;20450;-80
2022/01/02 04:16:35;;;;;;;7.00;5.03;;;;;;;-143.35;87.15;77364.88;5015573;28;20450;-79
2022/01/02 04:19:24;;;;;;;5.30;4.40;;;;;;;-143.35;87.11;77360.94;5033477;28;20503;-78
2022/01/02 04:22:11;;;;;;;6.90;5.30;;;;;;;-143.35;87.12;77355.00;5037775;28;20456;-80
2022/01/02 04:25:00;;;;;;;6.43;5.00;;;;;;;-143.35;87.14;77356.97;5037401;28;20453;-79
2022/01/02 04:27:50;;;;;;;6.33;4.60;;;;;;;-143.35;87.30;77356.97;5037672;28;20468;-79
2022/01/02 04:30:38;;;;;;;5.80;5.30;;;;;;;-143.35;87.41;77356.97;5037171;28;20465;-78
2022/01/02 04:33:25;;;;;;;8.30;6.30;;;;;;;-143.35;87.29;77349.06;5022536;28;20452;-78
2022/01/02 04:36:14;;;;;;;7.07;5.50;;;;;;;-143.35;87.35;77345.09;5017009;28;20454;-78
2022/01/02 04:39:02;;;;;;;7.07;6.37;;;;;;;-143.35;87.40;77353.00;5016218;28;20453;-78
2022/01/02 04:41:50;;;;;;;9.40;5.50;;;;;;;-143.35;87.40;77362.91;5015562;28;20447;-80
2022/01/02 04:44:38;;;;;;;5.03;4.50;;;;;;;-143.35;87.67;77376.75;5017283;28;20814;-80
2022/01/02 04:47:27;;;;;;;7.70;5.40;;;;;;;-143.35;88.18;77364.88;5026659;28;20445;-79
2022/01/02 04:50:14;;;;;;;6.93;5.37;;;;;;;-143.35;88.60;77360.94;5037917;28;21011;-79
2022/01/02 04:53:04;;;;;;;5.83;5.23;;;;;;;-143.35;89.10;77364.88;5036272;28;20449;-78
2022/01/02 04:55:52;;;;;;;7.87;5.73;;;;;;;-143.35;89.69;77360.94;5033532;28;20957;-79
2022/01/02 04:58:39;;;;;;;6.77;5.47;;;;;;;-143.35;89.94;77360.94;5035037;28;20437;-78
2022/01/02 05:01:27;;;;;;;5.93;5.37;;;;;;;-143.35;90.48;77360.94;5028207;28;20834;-78
2022/01/02 05:04:15;;;;;;;7.67;5.17;;;;;;;-143.35;90.90;77360.94;5021426;28;20445;-79
2022/01/02 05:07:03;;;;;;;9.00;6.07;;;;;;;-143.35;91.27;77362.91;5033101;28;20454;-76
2022/01/02 05:09:52;;;;;;;6.07;5.57;;;;;;;-143.35;91.70;77368.84;5036258;28;21015;-78
2022/01/02 05:12:40;;;;;;;7.57;5.60;;;;;;;-143.35;92.04;77368.84;5036022;28;20496;-80
2022/01/02 05:15:28;;;;;;;7.10;6.10;;;;;;;-143.35;92.39;77362.91;5030463;28;20881;-80
2022/01/02 05:18:17;;;;;;;6.57;5.97;;;;;;;-143.35;92.51;77356.97;5017181;28;20443;-80
2022/01/02 05:21:04;;;;;;;6.70;6.03;;;;;;;-143.35;92.73;77356.97;5015378;28;20564;-79
2022/01/02 05:23:52;;;;;;;8.07;5.20;;;;;;;-143.35;92.70;77355.00;5015128;28;20443;-79
2022/01/02 05:26:41;;;;;;;7.67;6.30;;;;;;;-143.35;92.91;77353.00;5016459;28;20454;-79
2022/01/02 05:29:29;;;;;;;5.43;4.83;;;;;;;-143.35;92.99;77351.03;5015936;28;20469;-78
2022/01/02 05:32:16;;;;;;;6.73;5.23;;;;;;;-143.35;93.09;77349.06;5015164;28;20453;-79
2022/01/02 05:35:05;;;;;;;5.80;5.20;;;;;;;-143.35;93.27;77345.09;5034482;28;20457;-78
2022/01/02 05:37:53;;;;;;;7.73;5.63;;;;;;;-143.35;93.47;77341.13;5026945;28;20441;-78
2022/01/02 05:40:40;;;;;;;6.77;5.70;;;;;;;-143.35;93.41;77331.25;5027158;28;20532;-78
2022/01/02 05:43:30;;;;;;;6.83;5.90;;;;;;;-143.35;92.90;77325.31;5027161;28;20513;-78
2022/01/02 05:46:18;;;;;;;6.63;5.43;;;;;;;-143.35;93.02;77323.34;5028301;28;20481;-80
2022/01/02 05:49:07;;;;;;;6.20;5.60;;;;;;;-143.35;93.27;77321.34;5029440;28;20573;-80
2022/01/02 05:51:55;;;;;;;7.23;5.40;;;;;;;-143.35;93.40;77305.53;5016028;28;20533;-80
2022/01/02 05:54:43;;;;;;;6.50;5.43;;;;;;;-143.35;93.46;77305.53;5011557;28;20818;-79
2022/01/02 05:57:32;;;;;;;7.37;5.50;;;;;;;-143.35;93.20;77299.59;5020324;28;20447;-80
2022/01/02 06:00:21;;;;;;;5.57;5.03;;;;;;;-143.35;93.58;77301.56;5028174;28;20996;-80
2022/01/02 06:03:16;;;;;;;7.23;5.00;;;;;;;-143.35;93.26;77279.78;5012310;28;20501;-79
2022/01/02 06:06:03;;;;;;;6.57;5.50;;;;;;;-143.35;93.27;77269.91;5028649;28;20445;-80
2022/01/02 06:08:51;;;;;;;5.53;5.03;;;;;;;-143.35;93.19;77273.88;5031350;28;20861;-80
2022/01/02 06:11:39;;;;;;;7.23;5.23;;;;;;;-143.35;93.23;77275.84;5030861;28;20536;-81
2022/01/02 06:14:27;;;;;;;5.67;5.17;;;;;;;-143.35;93.53;77277.81;5026142;28;20453;-79
2022/01/02 06:17:16;;;;;;;5.83;5.33;;;;;;;-143.35;93.93;77271.88;5027383;28;20523;-79
2022/01/02 06:20:04;;;;;;;7.10;5.20;;;;;;;-143.35;94.18;77271.88;5025183;28;20834;-80
2022/01/02 06:22:54;;;;;;;8.83;5.90;;;;;;;-143.35;94.15;77269.91;5019543;28;20787;-80
2022/01/02 06:25:41;;;;;;;7.63;5.90;;;;;;;-143.35;94.15;77265.94;5023516;28;20621;-79
2022/01/02 06:28:29;;;;;;;8.73;6.20;;;;;;;-143.35;94.06;77273.88;5011187;28;20474;-79
2022/01/02 06:31:17;;;;;;;5.83;5.33;;;;;;;-143.35;94.14;77285.72;5017082;28;20546;-79
2022/01/02 06:34:06;;;;;;;6.63;5.20;;;;;;;-143.35;93.76;77285.72;5010908;28;20453;-79
2022/01/02 06:36:53;;;;;;;5.43;4.80;;;;;;;-143.35;93.71;77281.78;5013045;28;20806;-79
2022/01/02 06:39:42;;;;;;;8.10;5.60;;;;;;;-143.35;93.57;77287.72;5021014;28;20457;-79
2022/01/02 06:42:30;;;;;;;7.90;5.57;;;;;;;-143.35;94.06;77283.75;5027303;28;20445;-79
2022/01/02 06:45:18;;;;;;;7.20;4.90;;;;;;;-143.35;94.06;77281.78;5022171;28;20461;-79
2022/01/02 06:48:07;;;;;;;7.50;5.10;;;;;;;-143.35;94.49;77277.81;5020830;28;20473;-78
2022/01/02 06:50:58;;;;;;;8.10;5.70;;;;;;;-143.35;94.70;77273.88;5028065;28;20465;-80
2022/01/02 06:53:50;;;;;;;7.50;5.70;;;;;;;-143.35;94.68;77267.94;5023955;28;20460;-78
2022/01/02 06:56:38;;;;;;;13.23;5.30;;;;;;;-143.35;94.26;77262.00;5015604;28;20438;-79
2022/01/02 06:59:26;;;;;;;7.87;5.30;;;;;;;-143.35;94.06;77258.03;5019185;28;20445;-80
2022/01/02 07:02:14;;;;;;;6.23;5.33;;;;;;;-143.35;93.92;77244.19;5028314;28;20461;-77
2022/01/02 07:05:01;;;;;;;6.63;5.23;;;;;;;-143.35;93.61;77252.09;5023549;28;20445;-78
2022/01/02 07:07:52;;;;;;;8.60;4.90;;;;;;;-143.35;93.58;77242.19;5035342;28;20453;-78
2022/01/02 07:10:41;;;;;;;8.53;6.00;;;;;;;-143.35;92.83;77228.34;5039405;28;20457;-79
2022/01/02 07:13:29;;;;;;;5.73;5.00;;;;;;;-143.35;93.04;77254.06;5040033;28;20587;-80
2022/01/02 07:16:16;;;;;;;8.07;5.60;;;;;;;-143.35;93.76;77248.13;5039241;28;20544;-80
2022/01/02 07:19:04;;;;;;;7.23;5.33;;;;;;;-143.35;93.45;77236.28;5041711;28;20509;-78
2022/01/02 07:21:53;;;;;;;7.10;5.90;;;;;;;-143.35;93.43;77236.28;5040960;28;20540;-78
2022/01/02 07:24:47;;;;;;;7.07;5.63;;;;;;;-143.35;92.79;77230.34;5039816;28;20446;-78
2022/01/02 07:27:35;;;;;;;8.27;5.70;;;;;;;-143.35;92.11;77214.50;5040053;28;20496;-78
2022/01/02 07:30:22;;;;;;;9.50;6.57;;;;;;;-143.35;92.02;77212.53;5040384;28;20996;-80
2022/01/02 07:33:10;;;;;;;6.00;5.00;;;;;;;-143.35;91.27;77194.72;5041969;28;20528;-80
2022/01/02 07:35:58;;;;;;;6.57;5.43;;;;;;;-143.35;91.23;77198.66;5040686;28;20449;-80
2022/01/02 07:38:45;;;;;;;5.20;4.70;;;;;;;-143.35;91.02;77176.91;5040516;28;20937;-79
2022/01/02 07:41:34;;;;;;;6.70;5.00;;;;;;;-143.35;90.00;77174.94;5040175;28;20648;-79
2022/01/02 07:44:22;;;;;;;7.00;4.73;;;;;;;-143.35;89.88;77169.00;5040565;28;20517;-80
2022/01/02 07:47:09;;;;;;;5.40;4.27;;;;;;;-143.35;89.91;77153.16;5039378;28;20441;-79
2022/01/02 07:49:57;;;;;;;6.10;4.53;;;;;;;-143.35;89.35;77133.38;5038444;28;21017;-78
2022/01/02 07:52:45;;;;;;;7.73;5.00;;;;;;;-143.35;89.38;77125.47;5038579;28;20497;-79
2022/01/02 07:55:32;;;;;;;5.00;4.50;;;;;;;-143.35;88.83;77119.53;5041039;28;20948;-81
2022/01/02 07:58:21;;;;;;;5.37;4.83;;;;;;;-143.35;88.15;77113.59;5040811;28;20513;-79
2022/01/02 08:01:09;;;;;;;4.70;4.20;;;;;;;-143.35;87.68;77115.56;5040926;28;20479;-80
2022/01/02 08:03:57;;;;;;;5.63;4.87;;;;;;;-143.35;86.79;77113.59;5040169;28;20438;-79
2022/01/02 08:06:44;;;;;;;4.60;4.07;;;;;;;-143.35;86.55;77089.84;5037024;28;20446;-77
2022/01/02 08:09:32;;;;;;;4.47;4.07;;;;;;;-143.35;86.26;77081.94;5038892;28;20483;-79
2022/01/02 08:12:19;;;;;;;9.73;4.50;;;;;;;-143.35;85.07;77077.97;5038223;28;21382;-79
2022/01/02 08:15:09;;;;;;;6.73;4.47;;;;;;;-143.35;84.32;77058.19;5040526;28;20900;-79
2022/01/02 08:17:57;;;;;;;4.00;3.67;;;;;;;-143.35;83.87;77044.34;5041221;28;20456;-78
2022/01/02 08:20:45;;;;;;;6.03;4.33;;;;;;;-143.35;83.81;77044.34;5042017;28;20504;-80
2022/01/02 08:23:36;;;;;;;4.30;3.90;;;;;;;-143.35;83.92;77038.41;5039936;28;20445;-79
2022/01/02 08:26:24;;;;;;;5.10;4.00;;;;;;;-143.35;83.34;77034.44;5037443;28;20515;-79
2022/01/02 08:29:11;;;;;;;5.83;4.00;;;;;;;-143.35;82.95;77032.47;5035328;28;20552;-79
2022/01/02 08:32:00;;;;;;;8.13;4.03;;;;;;;-143.35;82.82;77022.56;5042061;28;20449;-78
2022/01/02 08:34:48;;;;;;;5.07;4.57;;;;;;;-143.35;82.60;77016.63;5040509;28;20560;-79
2022/01/02 08:37:36;;;;;;;4.80;4.17;;;;;;;-143.35;82.25;77012.69;5040929;28;20441;-79
2022/01/02 08:40:23;;;;;;;5.03;4.53;;;;;;;-143.35;82.08;77010.72;5042565;28;20464;-79
2022/01/02 08:43:11;;;;;;;4.40;4.00;;;;;;;-143.35;81.92;77012.69;5041889;28;20891;-79
2022/01/02 08:45:59;;;;;;;6.03;4.40;;;;;;;-143.35;81.97;77014.66;5042078;28;20448;-79
2022/01/02 08:48:48;;;;;;;4.47;4.07;;;;;;;-143.35;81.90;77016.63;5040798;28;20445;-79
2022/01/02 08:51:35;;;;;;;4.53;3.90;;;;;;;-143.35;81.33;77016.63;5040473;28;20484;-79
2022/01/02 08:54:23;;;;;;;4.90;4.00;;;;;;;-143.35;80.20;77002.78;5041138;28;20445;-79
2022/01/02 08:57:11;;;;;;;4.77;3.77;;;;;;;-143.35;80.11;76994.88;5041452;28;20532;-79
2022/01/02 08:59:58;;;;;;;3.53;3.27;;;;;;;-143.35;80.23;77008.72;5064932;22;20465;-74
2022/01/02 09:02:46;;;;;;;3.60;3.30;;;;;;;-143.35;79.57;77012.69;5042579;28;20944;-75
2022/01/02 09:05:35;;;;;;;3.40;3.10;;;;;;;-143.35;79.58;77024.56;5049649;28;20449;-75
2022/01/02 09:08:23;;;;;;;4.80;3.40;;;;;;;-143.35;79.72;77024.56;5049079;28;20436;-75
2022/01/02 09:11:10;;;;;;;3.83;3.43;;;;;;;-143.35;80.58;77028.50;5041271;28;20463;-72
2022/01/02 09:13:59;;;;;;;3.43;3.13;;;;;;;-143.35;79.74;77012.69;5032835;28;20483;-75
2022/01/02 09:16:46;;;;;;;4.43;3.57;;;;;;;-143.35;80.53;77018.63;5031308;28;20446;-75
2022/01/02 09:19:34;;;;;;;4.10;3.70;;;;;;;-143.35;80.02;77032.47;5031362;28;20469;-75
2022/01/02 09:22:23;;;;;;;4.10;3.27;;;;;;;-143.35;79.87;77012.69;5031698;28;20444;-74
2022/01/02 09:25:11;;;;;;;5.40;3.60;;;;;;;-143.35;79.81;77004.78;5031499;28;20477;-75
2022/01/02 09:27:59;;;;;;;3.70;3.37;;;;;;;-143.35;79.82;77016.63;5032486;28;20465;-75
2022/01/02 09:30:46;;;;;;;4.13;3.17;;;;;;;-143.35;80.35;77026.53;5025344;28;20675;-76
2022/01/02 09:33:34;;;;;;;4.40;3.37;;;;;;;-143.35;80.64;77030.50;5031708;28;20452;-77
2022/01/02 09:36:22;;;;;;;4.90;4.43;;;;;;;-143.35;80.51;77024.56;5031050;28;20953;-77
2022/01/02 09:39:11;;;;;;;4.27;3.77;;;;;;;-143.35;80.41;77022.56;5031172;28;20437;-75
2022/01/02 09:41:58;;;;;;;4.97;3.70;;;;;;;-143.35;80.01;77026.53;5032050;28;20465;-77
2022/01/02 09:44:47;;;;;;;6.10;4.40;;;;;;;-143.35;79.79;77020.59;5032560;28;20468;-77
2022/01/02 09:47:34;;;;;;;5.00;3.90;;;;;;;-143.35;80.13;77002.78;5030672;28;20449;-76
2022/01/02 09:50:22;;;;;;;8.10;3.93;;;;;;;-143.35;80.77;76990.91;5032286;28;20476;-76
2022/01/02 09:53:10;;;;;;;7.20;4.40;;;;;;;-143.35;80.84;76988.94;5028495;28;20482;-76
2022/01/02 09:55:59;;;;;;;3.60;3.30;;;;;;;-143.35;80.99;76984.97;5029448;28;21110;-76
2022/01/02 09:58:47;;;;;;;3.67;3.37;;;;;;;-143.35;81.12;76975.09;5030691;28;20485;-76
2022/01/02 10:01:36;;;;;;;3.17;2.80;;;;;;;-143.35;80.62;76965.19;5030377;28;20814;-75
2022/01/02 10:04:33;;;;;;;3.67;3.37;;;;;;;-143.35;78.93;76959.25;5030627;28;20449;-77
2022/01/02 10:07:30;;;;;;;3.73;3.30;;;;;;;-143.35;78.93;76965.19;5030595;28;20814;-76
2022/01/02 10:10:17;;;;;;;4.23;3.20;;;;;;;-143.35;78.71;76949.38;5030416;28;20469;-73
2022/01/02 10:13:06;;;;;;;3.60;3.10;;;;;;;-143.35;78.00;76951.34;5030139;28;20791;-76
2022/01/02 10:15:54;;;;;;;3.50;3.20;;;;;;;-143.35;78.07;76975.09;5032155;28;20817;-76
2022/01/02 10:18:42;;;;;;;3.47;3.07;;;;;;;-143.35;77.88;76975.09;5029045;28;20450;-76
2022/01/02 10:21:32;;;;;;;5.17;3.17;;;;;;;-143.35;77.41;76971.13;5030320;28;20481;-75
2022/01/02 10:24:22;;;;;;;3.87;3.57;;;;;;;-143.35;76.80;76949.38;5029901;28;20449;-76
2022/01/02 10:27:13;;;;;;;4.60;3.50;;;;;;;-143.35;76.80;76969.16;5034420;28;20813;-77
2022/01/02 10:30:03;;;;;;;4.67;3.30;;;;;;;-143.35;77.01;76949.38;5037649;28;20479;-73
2022/01/02 10:32:52;;;;;;;4.70;4.30;;;;;;;-143.35;77.61;76929.59;5034533;28;20448;-75
2022/01/02 10:36:00;;;;;;;3.80;3.50;;;;;;;-143.35;78.47;76925.63;5031200;28;20440;-75
2022/01/02 10:39:03;;;;;;;4.30;3.30;;;;;;;-143.35;78.71;76890.00;5042277;28;20507;-73
2022/01/02 10:41:52;;;;;;;4.10;3.70;;;;;;;-143.35;79.11;76870.22;5032243;28;20504;-75
2022/01/02 10:44:42;;;;;;;3.70;3.30;;;;;;;-143.35;78.75;76844.50;5045519;28;20453;-76
2022/01/02 10:47:31;;;;;;;3.47;3.17;;;;;;;-143.35;78.67;76836.59;5032922;28;20437;-72
2022/01/02 10:50:18;;;;;;;3.40;3.10;;;;;;;-143.35;78.08;76838.56;5031843;28;20487;-75
2022/01/02 10:53:15;;;;;;;5.00;3.47;;;;;;;-143.35;77.46;76838.56;5027796;28;20931;-75
2022/01/02 10:56:05;;;;;;;3.93;3.50;;;;;;;-143.35;77.49;76822.75;5027000;28;20446;-75
2022/01/02 10:58:53;;;;;;;3.67;3.47;;;;;;;-143.35;76.60;76812.84;5023426;28;20580;-76
2022/01/02 11:01:41;;;;;;;3.90;3.60;;;;;;;-143.35;76.12;76808.91;5030846;28;20477;-75
2022/01/02 11:04:31;;;;;;;4.50;3.90;;;;;;;-143.35;76.36;76812.84;5033902;28;20453;-75
2022/01/02 11:07:22;;;;;;;3.53;3.00;;;;;;;-143.35;76.07;76802.97;5030309;28;20511;-77
2022/01/02 11:10:11;;;;;;;5.13;4.23;;;;;;;-143.35;75.59;76757.47;5031071;28;20465;-76
2022/01/02 11:12:59;;;;;;;4.57;3.47;;;;;;;-143.35;74.85;76773.28;5026884;28;20457;-76
2022/01/02 11:15:47;;;;;;;4.30;3.17;;;;;;;-143.35;74.87;76791.09;5029002;28;20449;-76
2022/01/02 11:18:36;;;;;;;4.50;3.80;;;;;;;-143.35;74.57;76808.91;5030076;28;20445;-76
2022/01/02 11:21:30;;;;;;;6.50;3.70;;;;;;;-143.35;74.12;76795.06;5027936;28;20461;-76
2022/01/02 11:24:24;;;;;;;3.90;3.60;;;;;;;-143.35;72.80;76781.19;5029800;28;20449;-76
2022/01/02 11:27:20;;;;;;;4.40;3.47;;;;;;;-143.35;72.40;76755.47;5037170;28;20539;-76
2022/01/02 11:30:37;;;;;;;6.57;4.43;;;;;;;-143.35;72.40;76751.53;5032004;28;21012;-75
2022/01/02 11:33:31;;;;;;;4.70;2.87;;;;;;;-143.35;72.73;76771.31;5031494;28;20480;-77
2022/01/02 11:36:25;;;;;;;5.87;3.43;;;;;;;-143.35;72.42;76759.44;5033644;28;20552;-76
2022/01/02 11:39:13;;;;;;;4.60;4.10;;;;;;;-143.35;72.43;76753.50;5031396;28;20481;-76
2022/01/02 11:42:00;;;;;;;5.00;3.90;;;;;;;-143.35;72.31;76739.66;5033995;28;20519;-75
2022/01/02 11:44:49;;;;;;;6.17;3.40;;;;;;;-143.35;71.56;76737.69;5030423;28;21244;-75
2022/01/02 11:47:40;;;;;;;6.43;4.03;;;;;;;-143.35;72.18;76759.44;5031898;28;20437;-77
2022/01/02 11:50:44;;;;;;;4.50;3.47;;;;;;;-143.35;71.02;76745.59;5034286;28;20475;-75
2022/01/02 11:53:35;;;;;;;6.00;3.33;;;;;;;-143.35;71.60;76753.50;5033449;28;20445;-75
2022/01/02 11:56:32;;;;;;;4.43;3.93;;;;;;;-143.35;69.19;76739.66;5033828;28;20452;-74
2022/01/02 11:59:55;;;;;;;4.80;3.77;;;;;;;-143.35;68.92;76735.69;5033177;28;20802;-75
2022/01/02 12:02:43;;;;;;;3.80;3.43;;;;;;;-143.35;71.11;76765.38;5034168;28;20446;-79
2022/01/02 12:05:30;;;;;;;5.60;3.73;;;;;;;-143.35;72.54;76781.19;5032211;28;20468;-79
2022/01/02 12:11:45;;;;;;;6.87;3.77;;;;;;;-143.35;70.42;76753.50;5087080;27;20619;-76
2022/01/02 12:14:51;;;;;;;5.63;3.27;;;;;;;-143.35;71.07;76759.44;5112205;28;20545;-75
2022/01/02 12:18:06;;;;;;;7.13;3.73;;;;;;;-143.35;70.98;76755.47;5106536;28;20488;-76
2022/01/02 12:21:10;;;;;;;4.57;3.83;;;;;;;-143.35;71.21;76765.38;5115489;28;20469;-74
2022/01/02 12:23:57;;;;;;;4.13;3.80;;;;;;;-143.35;71.54;76763.41;5114409;28;20532;-75
2022/01/02 12:26:46;;;;;;;4.10;3.50;;;;;;;-143.35;71.41;76769.34;5094540;28;20460;-75
2022/01/02 12:29:34;;;;;;;4.83;3.77;;;;;;;-143.35;72.11;76765.38;5091096;28;20462;-75
2022/01/02 12:32:22;;;;;;;4.37;3.97;;;;;;;-143.35;71.79;76769.34;5103226;28;20445;-75
2022/01/02 12:35:10;;;;;;;4.00;3.33;;;;;;;-143.35;72.25;76783.19;5105607;28;20517;-75
2022/01/02 12:38:05;;;;;;;4.83;3.50;;;;;;;-143.35;71.70;76759.44;5106769;28;21183;-75
2022/01/02 12:40:59;;;;;;;6.20;3.27;;;;;;;-143.35;71.49;76759.44;5106589;28;20526;-75
2022/01/02 12:43:56;;;;;;;3.30;3.00;;;;;;;-143.35;71.87;76751.53;5106415;28;20496;-74
2022/01/02 12:46:49;;;;;;;4.63;3.57;;;;;;;-143.35;71.48;76757.47;5107385;28;20821;-76
2022/01/02 12:49:39;;;;;;;6.50;3.90;;;;;;;-143.35;71.04;76739.66;5107928;28;20469;-75
2022/01/02 12:52:27;;;;;;;5.13;3.90;;;;;;;-143.35;70.96;76741.63;5106648;28;20444;-75
2022/01/02 12:55:15;;;;;;;7.20;3.40;;;;;;;-143.35;69.95;76735.69;5072945;28;20450;-76
2022/01/02 12:58:04;;;;;;;4.57;3.00;;;;;;;-143.35;70.58;76755.47;5072212;28;20973;-75
2022/01/02 13:00:54;;;;;;;3.80;3.07;;;;;;;-143.35;70.75;76747.56;5072196;28;21174;-75
2022/01/02 13:03:46;;;;;;;6.10;4.20;;;;;;;-143.35;71.54;76767.34;5087679;28;20439;-74
2022/01/02 13:06:34;;;;;;;5.23;3.67;;;;;;;-143.35;72.11;76769.34;5103665;28;20956;-74